sensor_id;sensor_type;location;lat;lon;timestamp;P1;durP1;ratioP1;P2;durP2;ratioP2
6432;SDS011;3249;42.690;23.260;2023-07-20T00:01:12;7.87;;;3.27;;
6432;SDS011;3249;42.690;23.260;2023-07-20T00:03:44;7.07;;;3.30;;
6432;SDS011;3249;42.690;23.260;2023-07-20T00:06:20;6.03;;;3.47;;
6432;SDS011;3249;42.690;23.260;2023-07-20T00:08:50;12.73;;;3.93;;
6432;SDS011;3249;42.690;23.260;2023-07-20T00:11:19;12.77;;;4.80;;
6432;SDS011;3249;42.690;23.260;2023-07-20T00:13:49;10.37;;;4.00;;
6432;SDS011;3249;42.690;23.260;2023-07-20T00:16:17;5.90;;;3.40;;
6432;SDS011;3249;42.690;23.260;2023-07-20T00:18:50;8.17;;;3.67;;
6432;SDS011;3249;42.690;23.260;2023-07-20T00:21:18;9.23;;;4.07;;
6432;SDS011;3249;42.690;23.260;2023-07-20T00:23:48;13.13;;;3.73;;
6432;SDS011;3249;42.690;23.260;2023-07-20T00:26:17;9.63;;;4.00;;
6432;SDS011;3249;42.690;23.260;2023-07-20T00:28:46;7.47;;;3.53;;
6432;SDS011;3249;42.690;23.260;2023-07-20T00:31:18;6.37;;;3.77;;
6432;SDS011;3249;42.690;23.260;2023-07-20T00:33:50;6.77;;;3.50;;
6432;SDS011;3249;42.690;23.260;2023-07-20T00:36:19;6.47;;;3.67;;
6432;SDS011;3249;42.690;23.260;2023-07-20T00:38:48;11.27;;;3.60;;
6432;SDS011;3249;42.690;23.260;2023-07-20T00:41:18;8.43;;;3.10;;
6432;SDS011;3249;42.690;23.260;2023-07-20T00:43:47;5.70;;;3.60;;
6432;SDS011;3249;42.690;23.260;2023-07-20T00:46:16;12.23;;;3.60;;
6432;SDS011;3249;42.690;23.260;2023-07-20T00:48:45;6.50;;;3.37;;
6432;SDS011;3249;42.690;23.260;2023-07-20T00:51:16;6.30;;;3.40;;
6432;SDS011;3249;42.690;23.260;2023-07-20T00:53:46;9.37;;;3.57;;
6432;SDS011;3249;42.690;23.260;2023-07-20T00:56:15;9.47;;;3.93;;
6432;SDS011;3249;42.690;23.260;2023-07-20T00:58:45;8.20;;;4.00;;
6432;SDS011;3249;42.690;23.260;2023-07-20T01:01:14;10.77;;;3.50;;
6432;SDS011;3249;42.690;23.260;2023-07-20T01:03:43;7.40;;;3.77;;
6432;SDS011;3249;42.690;23.260;2023-07-20T01:06:18;8.33;;;3.60;;
6432;SDS011;3249;42.690;23.260;2023-07-20T01:08:58;5.83;;;3.77;;
6432;SDS011;3249;42.690;23.260;2023-07-20T01:11:38;8.37;;;3.93;;
6432;SDS011;3249;42.690;23.260;2023-07-20T01:14:15;9.53;;;4.17;;
6432;SDS011;3249;42.690;23.260;2023-07-20T01:16:45;6.37;;;4.03;;
6432;SDS011;3249;42.690;23.260;2023-07-20T01:19:15;6.90;;;3.80;;
6432;SDS011;3249;42.690;23.260;2023-07-20T01:21:49;7.23;;;3.97;;
6432;SDS011;3249;42.690;23.260;2023-07-20T01:27:46;6.77;;;4.00;;
6432;SDS011;3249;42.690;23.260;2023-07-20T01:33:23;7.17;;;3.63;;
6432;SDS011;3249;42.690;23.260;2023-07-20T01:35:55;9.60;;;3.57;;
6432;SDS011;3249;42.690;23.260;2023-07-20T01:38:27;6.13;;;3.90;;
6432;SDS011;3249;42.690;23.260;2023-07-20T01:40:57;4.90;;;3.83;;
6432;SDS011;3249;42.690;23.260;2023-07-20T01:43:27;9.00;;;3.73;;
6432;SDS011;3249;42.690;23.260;2023-07-20T01:45:56;4.47;;;3.17;;
6432;SDS011;3249;42.690;23.260;2023-07-20T01:48:32;7.73;;;4.10;;
6432;SDS011;3249;42.690;23.260;2023-07-20T01:51:02;7.23;;;4.00;;
6432;SDS011;3249;42.690;23.260;2023-07-20T01:53:31;10.63;;;4.17;;
6432;SDS011;3249;42.690;23.260;2023-07-20T01:56:00;8.57;;;3.77;;
6432;SDS011;3249;42.690;23.260;2023-07-20T01:58:29;9.33;;;4.30;;
6432;SDS011;3249;42.690;23.260;2023-07-20T02:00:58;8.50;;;3.90;;
6432;SDS011;3249;42.690;23.260;2023-07-20T02:03:27;6.17;;;4.57;;
6432;SDS011;3249;42.690;23.260;2023-07-20T02:05:59;12.50;;;4.10;;
6432;SDS011;3249;42.690;23.260;2023-07-20T02:08:28;11.50;;;4.30;;
6432;SDS011;3249;42.690;23.260;2023-07-20T02:10:57;12.40;;;5.10;;
6432;SDS011;3249;42.690;23.260;2023-07-20T02:13:26;8.83;;;4.20;;
6432;SDS011;3249;42.690;23.260;2023-07-20T02:15:55;15.37;;;5.00;;
6432;SDS011;3249;42.690;23.260;2023-07-20T02:18:24;11.53;;;4.63;;
6432;SDS011;3249;42.690;23.260;2023-07-20T02:20:53;7.60;;;4.50;;
6432;SDS011;3249;42.690;23.260;2023-07-20T02:23:25;7.27;;;4.47;;
6432;SDS011;3249;42.690;23.260;2023-07-20T02:25:54;11.10;;;4.87;;
6432;SDS011;3249;42.690;23.260;2023-07-20T02:28:23;8.70;;;4.67;;
6432;SDS011;3249;42.690;23.260;2023-07-20T02:30:52;8.13;;;4.80;;
6432;SDS011;3249;42.690;23.260;2023-07-20T02:33:21;9.47;;;4.80;;
6432;SDS011;3249;42.690;23.260;2023-07-20T02:35:50;8.80;;;4.10;;
6432;SDS011;3249;42.690;23.260;2023-07-20T02:38:28;10.50;;;4.83;;
6432;SDS011;3249;42.690;23.260;2023-07-20T02:40:59;9.53;;;4.53;;
6432;SDS011;3249;42.690;23.260;2023-07-20T02:43:28;10.70;;;4.90;;
6432;SDS011;3249;42.690;23.260;2023-07-20T02:45:57;15.53;;;5.80;;
6432;SDS011;3249;42.690;23.260;2023-07-20T02:48:26;15.33;;;5.53;;
6432;SDS011;3249;42.690;23.260;2023-07-20T02:50:55;11.93;;;5.50;;
6432;SDS011;3249;42.690;23.260;2023-07-20T02:53:24;18.33;;;5.50;;
6432;SDS011;3249;42.690;23.260;2023-07-20T02:55:56;13.77;;;5.60;;
6432;SDS011;3249;42.690;23.260;2023-07-20T02:58:25;17.00;;;6.13;;
6432;SDS011;3249;42.690;23.260;2023-07-20T03:00:54;14.77;;;5.37;;
6432;SDS011;3249;42.690;23.260;2023-07-20T03:03:23;12.20;;;6.03;;
6432;SDS011;3249;42.690;23.260;2023-07-20T03:05:52;10.13;;;5.27;;
6432;SDS011;3249;42.690;23.260;2023-07-20T03:08:23;9.53;;;6.07;;
6432;SDS011;3249;42.690;23.260;2023-07-20T03:10:51;10.83;;;5.70;;
6432;SDS011;3249;42.690;23.260;2023-07-20T03:13:23;18.27;;;7.33;;
6432;SDS011;3249;42.690;23.260;2023-07-20T03:15:53;24.03;;;8.03;;
6432;SDS011;3249;42.690;23.260;2023-07-20T03:18:22;17.93;;;9.77;;
6432;SDS011;3249;42.690;23.260;2023-07-20T03:20:51;24.47;;;17.50;;
6432;SDS011;3249;42.690;23.260;2023-07-20T03:23:20;15.07;;;11.33;;
6432;SDS011;3249;42.690;23.260;2023-07-20T03:25:49;19.77;;;13.87;;
6432;SDS011;3249;42.690;23.260;2023-07-20T03:28:20;23.47;;;11.70;;
6432;SDS011;3249;42.690;23.260;2023-07-20T03:30:55;16.57;;;10.53;;
6432;SDS011;3249;42.690;23.260;2023-07-20T03:33:27;24.83;;;11.63;;
6432;SDS011;3249;42.690;23.260;2023-07-20T03:35:58;15.87;;;7.03;;
6432;SDS011;3249;42.690;23.260;2023-07-20T03:38:27;17.60;;;7.33;;
6432;SDS011;3249;42.690;23.260;2023-07-20T03:40:58;15.43;;;7.07;;
6432;SDS011;3249;42.690;23.260;2023-07-20T03:43:29;19.97;;;7.10;;
6432;SDS011;3249;42.690;23.260;2023-07-20T03:46:00;17.67;;;6.73;;
6432;SDS011;3249;42.690;23.260;2023-07-20T03:48:32;18.63;;;7.43;;
6432;SDS011;3249;42.690;23.260;2023-07-20T03:51:03;17.90;;;7.80;;
6432;SDS011;3249;42.690;23.260;2023-07-20T03:53:32;17.10;;;6.67;;
6432;SDS011;3249;42.690;23.260;2023-07-20T03:56:01;16.40;;;6.40;;
6432;SDS011;3249;42.690;23.260;2023-07-20T03:58:30;11.73;;;6.13;;
6432;SDS011;3249;42.690;23.260;2023-07-20T04:01:02;27.43;;;7.57;;
6432;SDS011;3249;42.690;23.260;2023-07-20T04:03:32;23.07;;;7.20;;
6432;SDS011;3249;42.690;23.260;2023-07-20T04:06:02;20.87;;;7.73;;
6432;SDS011;3249;42.690;23.260;2023-07-20T04:08:31;17.60;;;8.20;;
6432;SDS011;3249;42.690;23.260;2023-07-20T04:11:03;20.43;;;7.93;;
6432;SDS011;3249;42.690;23.260;2023-07-20T04:13:32;17.83;;;8.03;;
6432;SDS011;3249;42.690;23.260;2023-07-20T04:16:04;18.03;;;7.60;;
6432;SDS011;3249;42.690;23.260;2023-07-20T04:18:33;14.27;;;6.83;;
6432;SDS011;3249;42.690;23.260;2023-07-20T04:21:03;23.33;;;7.73;;
6432;SDS011;3249;42.690;23.260;2023-07-20T04:23:32;15.83;;;6.83;;
6432;SDS011;3249;42.690;23.260;2023-07-20T04:26:01;14.17;;;6.10;;
6432;SDS011;3249;42.690;23.260;2023-07-20T04:28:32;17.50;;;8.10;;
6432;SDS011;3249;42.690;23.260;2023-07-20T04:31:13;10.13;;;6.33;;
6432;SDS011;3249;42.690;23.260;2023-07-20T04:33:44;17.67;;;7.77;;
6432;SDS011;3249;42.690;23.260;2023-07-20T04:36:13;16.33;;;6.43;;
6432;SDS011;3249;42.690;23.260;2023-07-20T04:38:44;11.37;;;5.87;;
6432;SDS011;3249;42.690;23.260;2023-07-20T04:41:19;14.50;;;6.60;;
6432;SDS011;3249;42.690;23.260;2023-07-20T04:43:50;9.23;;;5.97;;
6432;SDS011;3249;42.690;23.260;2023-07-20T04:46:29;11.93;;;5.90;;
6432;SDS011;3249;42.690;23.260;2023-07-20T04:49:01;11.73;;;7.10;;
6432;SDS011;3249;42.690;23.260;2023-07-20T04:51:34;16.77;;;7.13;;
6432;SDS011;3249;42.690;23.260;2023-07-20T04:54:03;12.83;;;5.53;;
6432;SDS011;3249;42.690;23.260;2023-07-20T04:56:36;13.70;;;5.90;;
6432;SDS011;3249;42.690;23.260;2023-07-20T04:59:08;19.50;;;7.07;;
6432;SDS011;3249;42.690;23.260;2023-07-20T05:01:40;18.47;;;6.03;;
6432;SDS011;3249;42.690;23.260;2023-07-20T05:04:08;15.07;;;5.53;;
6432;SDS011;3249;42.690;23.260;2023-07-20T05:06:38;11.10;;;4.67;;
6432;SDS011;3249;42.690;23.260;2023-07-20T05:09:07;12.60;;;5.17;;
6432;SDS011;3249;42.690;23.260;2023-07-20T05:11:36;10.30;;;5.63;;
6432;SDS011;3249;42.690;23.260;2023-07-20T05:14:05;9.60;;;5.07;;
6432;SDS011;3249;42.690;23.260;2023-07-20T05:16:36;11.83;;;5.10;;
6432;SDS011;3249;42.690;23.260;2023-07-20T05:19:08;13.07;;;5.00;;
6432;SDS011;3249;42.690;23.260;2023-07-20T05:21:38;8.70;;;4.57;;
6432;SDS011;3249;42.690;23.260;2023-07-20T05:24:08;9.20;;;4.77;;
6432;SDS011;3249;42.690;23.260;2023-07-20T05:26:37;7.07;;;4.70;;
6432;SDS011;3249;42.690;23.260;2023-07-20T05:29:08;10.50;;;5.10;;
6432;SDS011;3249;42.690;23.260;2023-07-20T05:31:37;9.67;;;4.10;;
6432;SDS011;3249;42.690;23.260;2023-07-20T05:34:08;12.67;;;5.10;;
6432;SDS011;3249;42.690;23.260;2023-07-20T05:39:36;6.50;;;4.23;;
6432;SDS011;3249;42.690;23.260;2023-07-20T05:42:06;9.60;;;4.97;;
6432;SDS011;3249;42.690;23.260;2023-07-20T05:44:35;9.47;;;4.83;;
6432;SDS011;3249;42.690;23.260;2023-07-20T05:47:07;10.37;;;4.90;;
6432;SDS011;3249;42.690;23.260;2023-07-20T05:49:36;11.27;;;5.03;;
6432;SDS011;3249;42.690;23.260;2023-07-20T05:52:05;10.47;;;4.83;;
6432;SDS011;3249;42.690;23.260;2023-07-20T05:54:34;10.63;;;4.43;;
6432;SDS011;3249;42.690;23.260;2023-07-20T05:57:03;9.27;;;4.90;;
6432;SDS011;3249;42.690;23.260;2023-07-20T05:59:33;9.37;;;4.20;;
6432;SDS011;3249;42.690;23.260;2023-07-20T06:02:04;18.57;;;5.53;;
6432;SDS011;3249;42.690;23.260;2023-07-20T06:04:36;9.10;;;4.90;;
6432;SDS011;3249;42.690;23.260;2023-07-20T06:07:05;9.73;;;5.00;;
6432;SDS011;3249;42.690;23.260;2023-07-20T06:09:34;10.90;;;4.67;;
6432;SDS011;3249;42.690;23.260;2023-07-20T06:12:04;13.37;;;5.00;;
6432;SDS011;3249;42.690;23.260;2023-07-20T06:14:34;9.40;;;5.37;;
6432;SDS011;3249;42.690;23.260;2023-07-20T06:17:04;15.03;;;5.70;;
6432;SDS011;3249;42.690;23.260;2023-07-20T06:19:36;11.43;;;5.27;;
6432;SDS011;3249;42.690;23.260;2023-07-20T06:22:05;10.93;;;5.50;;
6432;SDS011;3249;42.690;23.260;2023-07-20T06:24:34;17.50;;;5.40;;
6432;SDS011;3249;42.690;23.260;2023-07-20T06:27:03;9.93;;;5.17;;
6432;SDS011;3249;42.690;23.260;2023-07-20T06:29:33;22.03;;;7.93;;
6432;SDS011;3249;42.690;23.260;2023-07-20T06:32:03;9.40;;;4.87;;
6432;SDS011;3249;42.690;23.260;2023-07-20T06:34:35;8.43;;;4.87;;
6432;SDS011;3249;42.690;23.260;2023-07-20T06:37:05;9.97;;;5.10;;
6432;SDS011;3249;42.690;23.260;2023-07-20T06:39:34;10.90;;;5.50;;
6432;SDS011;3249;42.690;23.260;2023-07-20T06:42:03;9.40;;;5.60;;
6432;SDS011;3249;42.690;23.260;2023-07-20T06:44:33;11.13;;;4.70;;
6432;SDS011;3249;42.690;23.260;2023-07-20T06:47:02;9.53;;;4.70;;
6432;SDS011;3249;42.690;23.260;2023-07-20T06:49:32;10.20;;;4.77;;
6432;SDS011;3249;42.690;23.260;2023-07-20T06:52:03;10.27;;;5.37;;
6432;SDS011;3249;42.690;23.260;2023-07-20T06:54:33;13.83;;;5.20;;
6432;SDS011;3249;42.690;23.260;2023-07-20T06:57:02;7.73;;;5.13;;
6432;SDS011;3249;42.690;23.260;2023-07-20T06:59:32;10.73;;;5.80;;
6432;SDS011;3249;42.690;23.260;2023-07-20T07:02:01;15.33;;;6.10;;
6432;SDS011;3249;42.690;23.260;2023-07-20T07:04:31;11.73;;;5.37;;
6432;SDS011;3249;42.690;23.260;2023-07-20T07:07:02;12.87;;;5.10;;
6432;SDS011;3249;42.690;23.260;2023-07-20T07:09:31;11.53;;;5.13;;
6432;SDS011;3249;42.690;23.260;2023-07-20T07:12:01;12.40;;;5.37;;
6432;SDS011;3249;42.690;23.260;2023-07-20T07:14:30;11.33;;;4.70;;
6432;SDS011;3249;42.690;23.260;2023-07-20T07:16:59;9.63;;;4.70;;
6432;SDS011;3249;42.690;23.260;2023-07-20T07:19:28;11.60;;;5.13;;
6432;SDS011;3249;42.690;23.260;2023-07-20T07:21:57;10.33;;;4.90;;
6432;SDS011;3249;42.690;23.260;2023-07-20T07:24:28;11.97;;;5.43;;
6432;SDS011;3249;42.690;23.260;2023-07-20T07:26:59;8.27;;;4.70;;
6432;SDS011;3249;42.690;23.260;2023-07-20T07:29:29;11.73;;;5.77;;
6432;SDS011;3249;42.690;23.260;2023-07-20T07:31:58;15.23;;;6.60;;
6432;SDS011;3249;42.690;23.260;2023-07-20T07:34:27;9.87;;;5.07;;
6432;SDS011;3249;42.690;23.260;2023-07-20T07:37:00;12.67;;;5.20;;
6432;SDS011;3249;42.690;23.260;2023-07-20T07:39:31;9.93;;;5.70;;
6432;SDS011;3249;42.690;23.260;2023-07-20T07:42:01;12.00;;;5.40;;
6432;SDS011;3249;42.690;23.260;2023-07-20T07:44:30;11.00;;;5.77;;
6432;SDS011;3249;42.690;23.260;2023-07-20T07:46:59;11.27;;;5.30;;
6432;SDS011;3249;42.690;23.260;2023-07-20T07:49:28;7.43;;;5.13;;
6432;SDS011;3249;42.690;23.260;2023-07-20T07:51:58;11.93;;;4.80;;
6432;SDS011;3249;42.690;23.260;2023-07-20T07:54:28;13.50;;;5.03;;
6432;SDS011;3249;42.690;23.260;2023-07-20T07:57:00;10.67;;;5.10;;
6432;SDS011;3249;42.690;23.260;2023-07-20T07:59:30;12.53;;;5.43;;
6432;SDS011;3249;42.690;23.260;2023-07-20T08:02:02;8.70;;;4.70;;
6432;SDS011;3249;42.690;23.260;2023-07-20T08:04:32;10.40;;;4.83;;
6432;SDS011;3249;42.690;23.260;2023-07-20T08:07:03;11.30;;;5.00;;
6432;SDS011;3249;42.690;23.260;2023-07-20T08:09:34;5.43;;;4.53;;
6432;SDS011;3249;42.690;23.260;2023-07-20T08:12:06;10.13;;;5.03;;
6432;SDS011;3249;42.690;23.260;2023-07-20T08:14:36;11.67;;;4.07;;
6432;SDS011;3249;42.690;23.260;2023-07-20T08:17:05;13.47;;;4.43;;
6432;SDS011;3249;42.690;23.260;2023-07-20T08:19:35;11.13;;;3.83;;
6432;SDS011;3249;42.690;23.260;2023-07-20T08:22:07;6.07;;;3.57;;
6432;SDS011;3249;42.690;23.260;2023-07-20T08:24:39;7.07;;;3.70;;
6432;SDS011;3249;42.690;23.260;2023-07-20T08:27:12;7.30;;;3.40;;
6432;SDS011;3249;42.690;23.260;2023-07-20T08:29:41;7.00;;;4.07;;
6432;SDS011;3249;42.690;23.260;2023-07-20T08:32:10;9.00;;;4.23;;
6432;SDS011;3249;42.690;23.260;2023-07-20T08:34:41;11.40;;;3.70;;
6432;SDS011;3249;42.690;23.260;2023-07-20T08:37:11;8.90;;;3.10;;
6432;SDS011;3249;42.690;23.260;2023-07-20T08:39:40;8.70;;;3.47;;
6432;SDS011;3249;42.690;23.260;2023-07-20T08:42:12;10.40;;;4.03;;
6432;SDS011;3249;42.690;23.260;2023-07-20T08:44:43;10.10;;;3.87;;
6432;SDS011;3249;42.690;23.260;2023-07-20T08:47:13;9.80;;;3.83;;
6432;SDS011;3249;42.690;23.260;2023-07-20T08:49:44;10.03;;;3.43;;
6432;SDS011;3249;42.690;23.260;2023-07-20T08:52:16;7.63;;;3.77;;
6432;SDS011;3249;42.690;23.260;2023-07-20T08:54:45;7.20;;;3.40;;
6432;SDS011;3249;42.690;23.260;2023-07-20T08:57:17;8.40;;;3.87;;
6432;SDS011;3249;42.690;23.260;2023-07-20T08:59:48;12.53;;;3.83;;
6432;SDS011;3249;42.690;23.260;2023-07-20T09:02:20;10.90;;;3.63;;
6432;SDS011;3249;42.690;23.260;2023-07-20T09:04:54;10.87;;;3.80;;
6432;SDS011;3249;42.690;23.260;2023-07-20T09:07:22;7.17;;;3.10;;
6432;SDS011;3249;42.690;23.260;2023-07-20T09:09:55;10.50;;;3.93;;
6432;SDS011;3249;42.690;23.260;2023-07-20T09:12:33;9.77;;;3.27;;
6432;SDS011;3249;42.690;23.260;2023-07-20T09:15:04;10.80;;;3.60;;
6432;SDS011;3249;42.690;23.260;2023-07-20T09:17:34;7.87;;;3.47;;
6432;SDS011;3249;42.690;23.260;2023-07-20T09:20:04;13.90;;;3.53;;
6432;SDS011;3249;42.690;23.260;2023-07-20T09:22:36;7.50;;;3.27;;
6432;SDS011;3249;42.690;23.260;2023-07-20T09:25:07;5.87;;;2.97;;
6432;SDS011;3249;42.690;23.260;2023-07-20T09:27:42;7.60;;;3.20;;
6432;SDS011;3249;42.690;23.260;2023-07-20T09:30:13;8.53;;;3.33;;
6432;SDS011;3249;42.690;23.260;2023-07-20T09:32:43;9.87;;;3.40;;
6432;SDS011;3249;42.690;23.260;2023-07-20T09:35:13;5.93;;;3.10;;
6432;SDS011;3249;42.690;23.260;2023-07-20T09:37:46;4.73;;;3.10;;
6432;SDS011;3249;42.690;23.260;2023-07-20T09:40:17;8.60;;;4.07;;
6432;SDS011;3249;42.690;23.260;2023-07-20T09:42:49;7.07;;;2.73;;
6432;SDS011;3249;42.690;23.260;2023-07-20T09:45:27;6.93;;;3.37;;
6432;SDS011;3249;42.690;23.260;2023-07-20T09:48:02;10.77;;;3.67;;
6432;SDS011;3249;42.690;23.260;2023-07-20T09:50:33;8.53;;;3.90;;
6432;SDS011;3249;42.690;23.260;2023-07-20T09:53:01;4.13;;;2.97;;
6432;SDS011;3249;42.690;23.260;2023-07-20T09:55:30;8.20;;;3.50;;
6432;SDS011;3249;42.690;23.260;2023-07-20T09:58:08;6.70;;;3.20;;
6432;SDS011;3249;42.690;23.260;2023-07-20T10:00:43;5.43;;;2.97;;
6432;SDS011;3249;42.690;23.260;2023-07-20T10:03:18;9.47;;;3.10;;
6432;SDS011;3249;42.690;23.260;2023-07-20T10:05:49;6.60;;;3.60;;
6432;SDS011;3249;42.690;23.260;2023-07-20T10:08:23;5.97;;;2.83;;
6432;SDS011;3249;42.690;23.260;2023-07-20T10:10:54;3.97;;;3.27;;
6432;SDS011;3249;42.690;23.260;2023-07-20T10:13:29;6.33;;;3.30;;
6432;SDS011;3249;42.690;23.260;2023-07-20T10:15:59;4.23;;;2.80;;
6432;SDS011;3249;42.690;23.260;2023-07-20T10:18:33;5.30;;;3.00;;
6432;SDS011;3249;42.690;23.260;2023-07-20T10:21:07;8.50;;;3.10;;
6432;SDS011;3249;42.690;23.260;2023-07-20T10:23:38;5.87;;;3.40;;
6432;SDS011;3249;42.690;23.260;2023-07-20T10:26:07;8.57;;;3.17;;
6432;SDS011;3249;42.690;23.260;2023-07-20T10:28:40;7.83;;;3.30;;
6432;SDS011;3249;42.690;23.260;2023-07-20T10:31:11;6.23;;;3.20;;
6432;SDS011;3249;42.690;23.260;2023-07-20T10:33:41;8.30;;;3.50;;
6432;SDS011;3249;42.690;23.260;2023-07-20T10:36:11;5.77;;;3.23;;
6432;SDS011;3249;42.690;23.260;2023-07-20T10:38:40;5.43;;;3.27;;
6432;SDS011;3249;42.690;23.260;2023-07-20T10:41:16;7.70;;;3.23;;
6432;SDS011;3249;42.690;23.260;2023-07-20T10:43:49;9.33;;;3.60;;
6432;SDS011;3249;42.690;23.260;2023-07-20T10:46:36;9.30;;;3.33;;
6432;SDS011;3249;42.690;23.260;2023-07-20T10:49:12;5.70;;;2.80;;
6432;SDS011;3249;42.690;23.260;2023-07-20T10:51:42;5.90;;;3.30;;
6432;SDS011;3249;42.690;23.260;2023-07-20T10:59:54;3.90;;;3.33;;
6432;SDS011;3249;42.690;23.260;2023-07-20T11:02:44;9.33;;;3.50;;
6432;SDS011;3249;42.690;23.260;2023-07-20T11:08:03;7.90;;;3.63;;
6432;SDS011;3249;42.690;23.260;2023-07-20T11:10:33;6.70;;;3.33;;
6432;SDS011;3249;42.690;23.260;2023-07-20T11:16:01;4.87;;;3.27;;
6432;SDS011;3249;42.690;23.260;2023-07-20T11:18:35;9.97;;;3.43;;
6432;SDS011;3249;42.690;23.260;2023-07-20T11:21:07;8.70;;;3.47;;
6432;SDS011;3249;42.690;23.260;2023-07-20T11:23:42;9.37;;;3.40;;
6432;SDS011;3249;42.690;23.260;2023-07-20T11:26:14;6.23;;;3.10;;
6432;SDS011;3249;42.690;23.260;2023-07-20T11:28:48;6.83;;;3.53;;
6432;SDS011;3249;42.690;23.260;2023-07-20T11:31:24;9.47;;;5.00;;
6432;SDS011;3249;42.690;23.260;2023-07-20T11:33:54;5.17;;;3.07;;
6432;SDS011;3249;42.690;23.260;2023-07-20T11:36:23;4.57;;;3.70;;
6432;SDS011;3249;42.690;23.260;2023-07-20T11:38:53;9.30;;;3.77;;
6432;SDS011;3249;42.690;23.260;2023-07-20T11:41:22;14.07;;;5.67;;
6432;SDS011;3249;42.690;23.260;2023-07-20T11:43:51;25.80;;;10.23;;
6432;SDS011;3249;42.690;23.260;2023-07-20T11:46:21;11.13;;;5.60;;
6432;SDS011;3249;42.690;23.260;2023-07-20T11:48:55;10.17;;;4.13;;
6432;SDS011;3249;42.690;23.260;2023-07-20T11:51:27;8.57;;;3.83;;
6432;SDS011;3249;42.690;23.260;2023-07-20T11:53:57;8.13;;;4.20;;
6432;SDS011;3249;42.690;23.260;2023-07-20T11:56:26;5.47;;;4.47;;
6432;SDS011;3249;42.690;23.260;2023-07-20T11:58:57;9.33;;;4.00;;
6432;SDS011;3249;42.690;23.260;2023-07-20T12:01:34;7.37;;;4.00;;
6432;SDS011;3249;42.690;23.260;2023-07-20T12:04:06;6.17;;;4.30;;
6432;SDS011;3249;42.690;23.260;2023-07-20T12:06:36;5.23;;;3.77;;
6432;SDS011;3249;42.690;23.260;2023-07-20T12:09:05;6.83;;;4.10;;
6432;SDS011;3249;42.690;23.260;2023-07-20T12:11:43;9.57;;;4.23;;
6432;SDS011;3249;42.690;23.260;2023-07-20T12:14:14;8.87;;;4.27;;
6432;SDS011;3249;42.690;23.260;2023-07-20T12:16:51;5.97;;;3.93;;
6432;SDS011;3249;42.690;23.260;2023-07-20T12:19:24;7.77;;;4.43;;
6432;SDS011;3249;42.690;23.260;2023-07-20T12:21:56;6.87;;;4.20;;
6432;SDS011;3249;42.690;23.260;2023-07-20T12:24:28;6.00;;;3.57;;
6432;SDS011;3249;42.690;23.260;2023-07-20T12:26:57;5.53;;;3.77;;
6432;SDS011;3249;42.690;23.260;2023-07-20T12:29:26;6.33;;;3.70;;
6432;SDS011;3249;42.690;23.260;2023-07-20T12:31:59;5.83;;;3.47;;
6432;SDS011;3249;42.690;23.260;2023-07-20T12:34:28;7.50;;;4.20;;
6432;SDS011;3249;42.690;23.260;2023-07-20T12:36:59;6.93;;;3.70;;
6432;SDS011;3249;42.690;23.260;2023-07-20T12:39:32;6.23;;;3.00;;
6432;SDS011;3249;42.690;23.260;2023-07-20T12:42:03;4.97;;;4.27;;
6432;SDS011;3249;42.690;23.260;2023-07-20T12:44:32;7.93;;;4.33;;
6432;SDS011;3249;42.690;23.260;2023-07-20T12:47:04;5.83;;;4.07;;
6432;SDS011;3249;42.690;23.260;2023-07-20T12:49:34;8.77;;;4.10;;
6432;SDS011;3249;42.690;23.260;2023-07-20T12:52:03;10.77;;;4.30;;
6432;SDS011;3249;42.690;23.260;2023-07-20T12:54:33;9.00;;;4.10;;
6432;SDS011;3249;42.690;23.260;2023-07-20T12:57:02;7.07;;;3.87;;
6432;SDS011;3249;42.690;23.260;2023-07-20T12:59:31;7.03;;;4.10;;
6432;SDS011;3249;42.690;23.260;2023-07-20T13:02:03;7.23;;;4.07;;
6432;SDS011;3249;42.690;23.260;2023-07-20T13:04:34;7.70;;;3.90;;
6432;SDS011;3249;42.690;23.260;2023-07-20T13:07:03;8.23;;;3.93;;
6432;SDS011;3249;42.690;23.260;2023-07-20T13:09:32;5.53;;;3.60;;
6432;SDS011;3249;42.690;23.260;2023-07-20T13:12:01;7.80;;;3.90;;
6432;SDS011;3249;42.690;23.260;2023-07-20T13:14:30;7.83;;;3.63;;
6432;SDS011;3249;42.690;23.260;2023-07-20T13:16:58;7.27;;;3.80;;
6432;SDS011;3249;42.690;23.260;2023-07-20T13:19:32;7.80;;;3.70;;
6432;SDS011;3249;42.690;23.260;2023-07-20T13:22:01;10.30;;;4.00;;
6432;SDS011;3249;42.690;23.260;2023-07-20T13:24:30;7.80;;;3.37;;
6432;SDS011;3249;42.690;23.260;2023-07-20T13:26:59;8.90;;;3.77;;
6432;SDS011;3249;42.690;23.260;2023-07-20T13:29:28;6.40;;;3.63;;
6432;SDS011;3249;42.690;23.260;2023-07-20T13:31:57;7.93;;;4.43;;
6432;SDS011;3249;42.690;23.260;2023-07-20T13:34:31;8.93;;;4.00;;
6432;SDS011;3249;42.690;23.260;2023-07-20T13:37:00;7.77;;;3.47;;
6432;SDS011;3249;42.690;23.260;2023-07-20T13:39:29;10.40;;;6.17;;
6432;SDS011;3249;42.690;23.260;2023-07-20T13:41:58;8.97;;;5.80;;
6432;SDS011;3249;42.690;23.260;2023-07-20T13:44:29;7.33;;;4.20;;
6432;SDS011;3249;42.690;23.260;2023-07-20T13:46:59;7.43;;;3.77;;
6432;SDS011;3249;42.690;23.260;2023-07-20T13:49:31;9.63;;;3.80;;
6432;SDS011;3249;42.690;23.260;2023-07-20T13:52:01;10.00;;;3.67;;
6432;SDS011;3249;42.690;23.260;2023-07-20T13:54:30;10.03;;;3.97;;
6432;SDS011;3249;42.690;23.260;2023-07-20T13:56:59;8.90;;;3.50;;
6432;SDS011;3249;42.690;23.260;2023-07-20T13:59:29;9.93;;;3.50;;
6432;SDS011;3249;42.690;23.260;2023-07-20T14:01:58;8.83;;;3.37;;
6432;SDS011;3249;42.690;23.260;2023-07-20T14:04:31;9.67;;;4.10;;
6432;SDS011;3249;42.690;23.260;2023-07-20T14:07:00;8.37;;;3.40;;
6432;SDS011;3249;42.690;23.260;2023-07-20T14:09:30;5.17;;;3.43;;
6432;SDS011;3249;42.690;23.260;2023-07-20T14:11:59;13.17;;;4.90;;
6432;SDS011;3249;42.690;23.260;2023-07-20T14:14:30;10.00;;;4.13;;
6432;SDS011;3249;42.690;23.260;2023-07-20T14:16:59;8.23;;;4.07;;
6432;SDS011;3249;42.690;23.260;2023-07-20T14:19:31;8.77;;;3.70;;
6432;SDS011;3249;42.690;23.260;2023-07-20T14:22:00;8.00;;;3.80;;
6432;SDS011;3249;42.690;23.260;2023-07-20T14:24:30;5.87;;;3.70;;
6432;SDS011;3249;42.690;23.260;2023-07-20T14:27:00;7.90;;;3.40;;
6432;SDS011;3249;42.690;23.260;2023-07-20T14:29:29;9.23;;;4.97;;
6432;SDS011;3249;42.690;23.260;2023-07-20T14:32:02;8.83;;;3.67;;
6432;SDS011;3249;42.690;23.260;2023-07-20T14:34:35;10.17;;;3.80;;
6432;SDS011;3249;42.690;23.260;2023-07-20T14:37:08;4.77;;;3.23;;
6432;SDS011;3249;42.690;23.260;2023-07-20T14:39:38;7.40;;;4.10;;
6432;SDS011;3249;42.690;23.260;2023-07-20T14:42:07;9.47;;;4.10;;
6432;SDS011;3249;42.690;23.260;2023-07-20T14:44:36;8.10;;;3.90;;
6432;SDS011;3249;42.690;23.260;2023-07-20T14:47:07;4.30;;;3.13;;
6432;SDS011;3249;42.690;23.260;2023-07-20T14:49:39;5.77;;;3.50;;
6432;SDS011;3249;42.690;23.260;2023-07-20T14:52:08;8.33;;;3.80;;
6432;SDS011;3249;42.690;23.260;2023-07-20T14:54:41;5.63;;;3.87;;
6432;SDS011;3249;42.690;23.260;2023-07-20T14:57:10;9.60;;;4.13;;
6432;SDS011;3249;42.690;23.260;2023-07-20T14:59:42;7.20;;;4.10;;
6432;SDS011;3249;42.690;23.260;2023-07-20T15:02:12;7.13;;;3.40;;
6432;SDS011;3249;42.690;23.260;2023-07-20T15:04:48;7.13;;;3.13;;
6432;SDS011;3249;42.690;23.260;2023-07-20T15:07:19;6.53;;;3.70;;
6432;SDS011;3249;42.690;23.260;2023-07-20T15:09:49;5.93;;;3.33;;
6432;SDS011;3249;42.690;23.260;2023-07-20T15:12:20;6.73;;;3.60;;
6432;SDS011;3249;42.690;23.260;2023-07-20T15:15:02;7.97;;;3.37;;
6432;SDS011;3249;42.690;23.260;2023-07-20T15:17:33;7.03;;;3.67;;
6432;SDS011;3249;42.690;23.260;2023-07-20T15:20:06;10.97;;;4.00;;
6432;SDS011;3249;42.690;23.260;2023-07-20T15:22:45;6.33;;;4.30;;
6432;SDS011;3249;42.690;23.260;2023-07-20T15:25:15;8.53;;;3.47;;
6432;SDS011;3249;42.690;23.260;2023-07-20T15:27:44;3.60;;;3.30;;
6432;SDS011;3249;42.690;23.260;2023-07-20T15:30:13;7.77;;;3.73;;
6432;SDS011;3249;42.690;23.260;2023-07-20T15:32:43;5.47;;;3.63;;
6432;SDS011;3249;42.690;23.260;2023-07-20T15:35:15;5.97;;;3.40;;
6432;SDS011;3249;42.690;23.260;2023-07-20T15:37:47;6.67;;;3.83;;